createdAt,value
2017-03-03T00:00:06.355Z,51.9
2017-03-03T00:10:06.355Z,51.9
2017-03-03T00:20:06.365Z,52.5
2017-03-03T00:30:06.356Z,52.5
2017-03-03T00:40:06.386Z,51.9
2017-03-03T00:50:06.373Z,52.5
2017-03-03T01:00:06.370Z,51.9
2017-03-03T01:10:06.355Z,51.9
2017-03-03T01:20:06.389Z,51.9
2017-03-03T01:30:06.396Z,51.9
2017-03-03T01:40:06.389Z,51.9
2017-03-03T01:50:06.362Z,51.9
2017-03-03T02:00:06.354Z,51.9
2017-03-03T02:10:06.357Z,51.9
2017-03-03T02:20:06.357Z,51.9
2017-03-03T02:30:06.355Z,51.9
2017-03-03T02:40:06.356Z,51.9
2017-03-03T02:50:06.355Z,51.4
2017-03-03T03:00:06.352Z,51.4
2017-03-03T03:10:06.385Z,51.4
2017-03-03T03:20:06.361Z,51.9
2017-03-03T03:30:06.362Z,51.9
2017-03-03T03:40:06.386Z,51.4
2017-03-03T03:50:06.384Z,51.4
2017-03-03T04:00:06.357Z,51.9
2017-03-03T04:10:06.356Z,51.4
2017-03-03T04:20:06.389Z,50.8
2017-03-03T04:30:06.356Z,51.4
2017-03-03T04:40:06.357Z,50.8
2017-03-03T04:50:06.355Z,51.4
2017-03-03T05:00:06.357Z,51.4
2017-03-03T05:10:05.050Z,51.4
2017-03-03T05:20:06.419Z,51.4
2017-03-03T05:30:07.854Z,50.8
2017-03-03T05:40:06.355Z,50.8
2017-03-03T05:50:04.292Z,51.4
2017-03-03T06:00:06.387Z,51.4
2017-03-03T06:10:06.424Z,51.4
2017-03-03T06:20:06.359Z,50.8
2017-03-03T06:30:06.361Z,50.8
2017-03-03T06:40:06.354Z,50.8
2017-03-03T06:50:06.391Z,50.3
2017-03-03T07:00:06.357Z,50.8
2017-03-03T07:10:06.356Z,50.8
2017-03-03T07:20:06.357Z,50.3
2017-03-03T07:30:06.387Z,50.8
2017-03-03T07:40:06.357Z,50.3
2017-03-03T07:50:06.395Z,50.8
2017-03-03T08:00:06.356Z,51.4
2017-03-03T08:10:06.353Z,50.8
2017-03-03T08:20:06.356Z,50.8
2017-03-03T08:30:06.388Z,51.4
2017-03-03T08:40:06.358Z,51.4
2017-03-03T08:50:06.385Z,50.8
2017-03-03T09:00:06.362Z,50.8
2017-03-03T09:10:06.358Z,51.4
2017-03-03T09:20:06.354Z,51.4
2017-03-03T09:30:06.356Z,51.9
2017-03-03T09:40:06.362Z,51.4
2017-03-03T09:50:06.362Z,51.9
2017-03-03T10:00:06.355Z,51.9
2017-03-03T10:10:06.389Z,51.9
2017-03-03T10:20:06.355Z,52.5
2017-03-03T10:30:06.357Z,51.9
2017-03-03T10:40:06.392Z,51.9
2017-03-03T10:50:06.356Z,53
2017-03-03T11:00:06.355Z,52.5
2017-03-03T11:10:06.387Z,53
2017-03-03T11:20:04.561Z,53
2017-03-03T11:30:06.357Z,53
2017-03-03T11:40:06.399Z,53
2017-03-03T11:50:06.388Z,54.1
2017-03-03T12:00:05.034Z,54.1
2017-03-03T12:10:06.360Z,53
2017-03-03T12:20:06.355Z,53.5
2017-03-03T12:30:06.395Z,54.1
2017-03-03T12:40:03.759Z,54.1
2017-03-03T12:50:06.386Z,54.1
2017-03-03T13:00:06.358Z,54.1
2017-03-03T13:10:06.387Z,54.1
2017-03-03T13:20:02.483Z,54.1
2017-03-03T13:30:06.356Z,54.1
2017-03-03T13:40:06.405Z,54.1
2017-03-03T13:50:06.360Z,54.1
2017-03-03T14:00:01.542Z,55.1
2017-03-03T14:10:06.360Z,54.6
2017-03-03T14:20:06.361Z,54.6
2017-03-03T14:30:06.366Z,54.6
2017-03-03T14:40:02.244Z,54.6
2017-03-03T14:50:06.361Z,54.6
2017-03-03T15:00:06.365Z,54.1
2017-03-03T15:10:06.354Z,54.6
2017-03-03T15:20:01.118Z,55.1
2017-03-03T15:30:21.394Z,54.1
2017-03-03T15:40:16.363Z,54.6
2017-03-03T15:50:16.361Z,55.1
2017-03-03T16:00:02.800Z,54.1
2017-03-03T16:10:06.390Z,54.1
2017-03-03T16:20:06.393Z,55.1
2017-03-03T16:30:06.357Z,55.1
2017-03-03T16:40:06.389Z,55.1
2017-03-03T16:50:06.390Z,55.1
2017-03-03T17:00:06.356Z,55.7
2017-03-03T17:10:06.383Z,55.1
2017-03-03T17:20:06.360Z,55.1
2017-03-03T17:30:06.361Z,55.1
2017-03-03T17:40:06.354Z,54.6
2017-03-03T17:50:06.353Z,55.1
2017-03-03T18:00:06.352Z,54.1
2017-03-03T18:10:06.398Z,55.1
2017-03-03T18:20:06.360Z,55.1
2017-03-03T18:30:06.388Z,55.1
2017-03-03T18:40:06.425Z,54.1
2017-03-03T18:50:06.386Z,55.1
2017-03-03T19:00:06.354Z,55.1
2017-03-03T19:10:06.356Z,55.1
2017-03-03T19:20:06.415Z,55.1
2017-03-03T19:30:06.353Z,55.1
2017-03-03T19:40:06.354Z,55.1
2017-03-03T19:50:06.355Z,55.1
2017-03-03T20:00:06.354Z,54.6
2017-03-03T20:10:06.355Z,54.1
2017-03-03T20:20:06.360Z,55.1
2017-03-03T20:30:06.393Z,54.6
2017-03-03T20:40:06.359Z,55.1
2017-03-03T20:50:06.363Z,54.6
2017-03-03T21:00:06.355Z,54.1
2017-03-03T21:10:06.359Z,54.6
2017-03-03T21:20:06.359Z,54.1
2017-03-03T21:30:06.358Z,55.1
2017-03-03T21:40:06.357Z,54.6
2017-03-03T21:50:06.356Z,54.1
2017-03-03T22:00:06.355Z,54.1
2017-03-03T22:10:06.364Z,54.1
2017-03-03T22:20:06.359Z,54.1
2017-03-03T22:30:06.392Z,54.6
2017-03-03T22:40:06.362Z,54.1
2017-03-03T22:50:06.360Z,54.1
2017-03-03T23:00:06.361Z,54.6
2017-03-03T23:10:06.361Z,54.1
2017-03-03T23:20:06.365Z,54.1
2017-03-03T23:30:06.361Z,54.1
2017-03-03T23:40:06.361Z,54.1
2017-03-03T23:50:06.394Z,53.5
